Sheffield, Ohio
Current Conditions -  °F | °C
As of 12:53 PM on Thursday 30 Oct 2014 (Local Time) from KLPR Reporting Station
Scattered Clouds Scattered Clouds  
Wind Chill: 44°   Ceiling: Unl
Heat Index: 48°   Visibility: 10mi
Dew Point: 36°   Wind: 8mph
Humidity: 63%   Direction: 290°WNW
Pressure: 30.13"   Gusts: NA
Location:  41.4372°N, 82.1333°W
Report Text: KLPR 301653Z AUTO 29007KT 10SM FEW030 SCT038 09/02 A3013 RMK AO2 SLP205 T00890022 TSNO
Loading
Personal Weather Stations






























Interactive Weather Map
Tropical Storm Tracking
New forecast layout! Learn more

10-Day Weather Forecast

Advertisements
Track Severe Weather on mobile